Time;durP1;ratioP1;P1;durP2;ratioP2;P2;SDS_P1;SDS_P2;PMS_P1;PMS_P2;Temp;Humidity;BMP_temperature;BMP_pressure;BME280_temperature;BME280_humidity;BME280_pressure;Samples;Min_cycle;Max_cycle;Signal;HPM_P1;HPM_P2
2022/04/16 00:00:55;;;;;;;0.10;0.10;;;;;;;15.69;49.57;100072.66;6251975;22;20494;-74
2022/04/16 00:03:22;;;;;;;0.20;0.20;;;;;;;15.78;49.07;100068.69;6251990;22;20384;-74
2022/04/16 00:05:56;;;;;;;0.20;0.20;;;;;;;15.81;48.58;100067.84;6278831;22;20007;-75
2022/04/16 00:08:24;;;;;;;0.20;0.20;;;;;;;15.77;49.13;100061.47;6251973;22;20090;-75
2022/04/16 00:10:51;;;;;;;0.20;0.20;;;;;;;15.59;49.05;100034.16;6252221;22;20008;-74
2022/04/16 00:13:18;;;;;;;0.20;0.20;;;;;;;15.73;49.39;100053.03;6251618;22;20014;-74
2022/04/16 00:15:44;;;;;;;0.20;0.20;;;;;;;15.71;49.35;100053.44;6251621;22;20000;-74
2022/04/16 00:18:10;;;;;;;0.20;0.20;;;;;;;15.85;48.53;100057.44;6251532;22;20042;-74
2022/04/16 00:20:36;;;;;;;0.20;0.20;;;;;;;15.75;49.32;100053.44;6251518;22;20008;-74
2022/04/16 00:23:01;;;;;;;0.20;0.20;;;;;;;15.79;48.65;100045.81;6251483;22;19999;-74
2022/04/16 00:25:30;;;;;;;0.20;0.20;;;;;;;15.68;49.09;100045.03;6251785;22;20003;-74
2022/04/16 00:27:56;;;;;;;0.20;0.20;;;;;;;15.71;48.67;100047.84;6251538;22;20009;-74
2022/04/16 00:30:21;;;;;;;0.20;0.20;;;;;;;15.74;48.79;100043.41;6251430;22;20012;-74
2022/04/16 00:32:47;;;;;;;0.20;0.20;;;;;;;15.68;49.08;100031.00;6251380;22;20007;-74
2022/04/16 00:35:16;;;;;;;0.20;0.20;;;;;;;15.61;49.35;100031.78;6251603;22;20085;-74
2022/04/16 00:37:41;;;;;;;0.20;0.20;;;;;;;15.61;48.88;100037.41;6251252;22;20057;-74
2022/04/16 00:40:07;;;;;;;0.13;0.13;;;;;;;15.65;48.72;100032.59;6251333;22;20008;-74
2022/04/16 00:42:41;;;;;;;0.20;0.20;;;;;;;15.64;48.77;100035.81;6250700;22;20041;-74
2022/04/16 00:45:07;;;;;;;0.20;0.20;;;;;;;15.63;48.92;100025.81;6251999;22;20325;-74
2022/04/16 00:47:33;;;;;;;0.20;0.20;;;;;;;15.61;48.97;100014.97;6251489;22;20012;-74
2022/04/16 00:50:00;;;;;;;0.20;0.20;;;;;;;15.53;48.72;100002.13;6251157;22;20004;-74
2022/04/16 00:52:26;;;;;;;0.20;0.20;;;;;;;15.41;49.32;100002.53;6245494;23;20102;-75
2022/04/16 00:54:54;;;;;;;0.20;0.20;;;;;;;15.52;48.98;100006.13;6246744;23;20440;-74
2022/04/16 00:57:21;;;;;;;0.20;0.20;;;;;;;15.67;48.53;100004.16;6246015;23;20019;-74
2022/04/16 00:59:47;;;;;;;0.20;0.20;;;;;;;15.53;48.79;99996.53;6246014;23;20008;-74
2022/04/16 01:02:12;;;;;;;0.20;0.20;;;;;;;15.53;48.68;99985.31;6245715;23;20004;-74
2022/04/16 01:04:38;;;;;;;0.20;0.20;;;;;;;15.56;49.34;99978.91;6246530;23;20050;-73
2022/04/16 01:07:06;;;;;;;0.20;0.20;;;;;;;15.46;49.10;99979.72;6246251;23;20451;-73
2022/04/16 01:09:32;;;;;;;0.20;0.20;;;;;;;15.51;48.41;99970.91;6246492;23;20012;-74
2022/04/16 01:11:58;;;;;;;0.20;0.20;;;;;;;15.51;48.65;99976.50;6245914;23;20008;-74
2022/04/16 01:14:25;;;;;;;0.20;0.20;;;;;;;15.43;48.55;99970.09;6245867;23;20027;-74
2022/04/16 01:16:56;;;;;;;0.20;0.20;;;;;;;15.56;48.70;99984.50;6245881;23;20004;-74
2022/04/16 01:19:22;;;;;;;0.10;0.10;;;;;;;15.48;48.63;99980.09;6245860;23;20005;-74
2022/04/16 01:21:48;;;;;;;0.20;0.20;;;;;;;15.33;49.01;99970.88;6245873;23;20008;-74
2022/04/16 01:24:14;;;;;;;0.20;0.20;;;;;;;15.30;49.65;99971.69;6246151;23;20008;-74
2022/04/16 01:26:41;;;;;;;0.20;0.20;;;;;;;15.29;49.42;99986.91;6245844;23;20079;-74
2022/04/16 01:29:08;;;;;;;0.20;0.20;;;;;;;15.29;49.66;99975.72;6247708;22;20387;-74
2022/04/16 01:31:33;;;;;;;0.20;0.20;;;;;;;15.23;49.58;99979.28;6247251;22;20010;-74
2022/04/16 01:33:59;;;;;;;0.20;0.20;;;;;;;15.18;49.97;99966.50;6245713;23;20031;-74
2022/04/16 01:36:29;;;;;;;0.15;0.15;;;;;;;15.16;49.69;99978.09;6247259;23;20038;-74
2022/04/16 01:38:55;;;;;;;0.20;0.20;;;;;;;15.25;49.91;99974.09;6245574;23;20014;-74
2022/04/16 01:41:21;;;;;;;0.20;0.20;;;;;;;15.20;49.77;99967.69;6245568;23;20012;-74
2022/04/16 01:43:46;;;;;;;0.20;0.20;;;;;;;15.32;49.58;99974.09;6244591;23;20015;-74
2022/04/16 01:46:12;;;;;;;0.20;0.20;;;;;;;15.27;49.83;99966.09;6245811;23;20070;-74
2022/04/16 01:48:40;;;;;;;0.20;0.20;;;;;;;15.23;49.80;99960.47;6245616;23;20372;-74
2022/04/16 01:51:06;;;;;;;0.20;0.20;;;;;;;15.17;49.55;99959.25;6245459;23;20138;-74
2022/04/16 01:53:31;;;;;;;0.20;0.20;;;;;;;15.29;49.03;99963.69;6244411;23;20044;-74
2022/04/16 01:55:57;;;;;;;0.20;0.20;;;;;;;15.25;49.03;99954.47;6245487;23;20440;-74
2022/04/16 01:58:22;;;;;;;0.20;0.20;;;;;;;15.18;49.08;99941.28;6246075;23;20020;-74
2022/04/16 02:00:49;;;;;;;0.20;0.20;;;;;;;15.07;49.65;99941.25;6247075;22;20004;-74
2022/04/16 02:03:14;;;;;;;0.20;0.20;;;;;;;15.02;49.89;99941.66;6245572;23;20332;-74
2022/04/16 02:05:40;;;;;;;0.20;0.20;;;;;;;15.12;50.09;99945.66;6246102;23;20008;-74
2022/04/16 02:08:07;;;;;;;0.20;0.20;;;;;;;15.05;50.20;99949.25;6246900;22;20444;-74
2022/04/16 02:10:34;;;;;;;0.20;0.20;;;;;;;15.05;50.54;99940.84;6245318;23;20008;-74
2022/04/16 02:13:00;;;;;;;0.20;0.20;;;;;;;15.00;50.88;99944.03;6245314;23;20088;-74
2022/04/16 02:15:27;;;;;;;0.20;0.20;;;;;;;14.95;51.21;99936.03;6245930;23;20039;-75
2022/04/16 02:17:56;;;;;;;0.20;0.20;;;;;;;15.11;50.58;99939.25;6247196;22;20079;-75
2022/04/16 02:20:23;;;;;;;0.20;0.20;;;;;;;15.03;51.26;99937.66;6245250;23;20484;-74
2022/04/16 02:22:49;;;;;;;0.20;0.20;;;;;;;15.07;51.47;99930.03;6245035;23;20004;-74
2022/04/16 02:25:20;;;;;;;0.20;0.20;;;;;;;15.06;51.40;99938.84;6245562;23;20012;-74
2022/04/16 02:27:46;;;;;;;0.20;0.20;;;;;;;15.13;51.06;99945.28;6247246;22;20012;-74
2022/04/16 02:30:14;;;;;;;0.20;0.20;;;;;;;15.07;51.16;99941.25;6245628;23;20107;-74
2022/04/16 02:32:43;;;;;;;0.20;0.20;;;;;;;15.02;51.14;99938.88;6245491;23;20486;-74
2022/04/16 02:35:10;;;;;;;0.20;0.20;;;;;;;15.01;50.79;99942.84;6245059;23;20012;-74
2022/04/16 02:37:36;;;;;;;0.20;0.20;;;;;;;14.97;50.91;99936.47;6246723;22;20004;-75
2022/04/16 02:40:03;;;;;;;0.20;0.20;;;;;;;14.97;50.81;99930.84;6245344;23;20318;-74
2022/04/16 02:42:29;;;;;;;0.20;0.20;;;;;;;14.95;50.69;99933.22;6244856;23;20086;-75
2022/04/16 02:47:38;;;;;;;;;;;;;;;15.11;49.95;99932.84;6247684;23;20379;-75
2022/04/16 02:50:04;;;;;;;0.20;0.20;;;;;;;15.09;49.49;99927.66;6246010;23;19931;-75
2022/04/16 02:52:34;;;;;;;0.20;0.20;;;;;;;15.00;49.62;99930.03;6250246;22;20329;-75
2022/04/16 02:55:01;;;;;;;0.20;0.20;;;;;;;15.02;49.68;99933.25;6277130;22;20000;-75
2022/04/16 02:57:26;;;;;;;0.20;0.20;;;;;;;15.10;49.62;99934.84;6251534;22;20045;-75
2022/04/16 02:59:52;;;;;;;0.10;0.10;;;;;;;14.92;50.11;99922.84;6250750;22;20007;-75
2022/04/16 03:02:18;;;;;;;0.20;0.20;;;;;;;14.79;50.79;99913.22;6250415;22;20011;-75
2022/04/16 03:04:43;;;;;;;0.20;0.20;;;;;;;14.90;49.90;99914.03;6249802;22;20031;-75
2022/04/16 03:07:09;;;;;;;0.20;0.20;;;;;;;14.90;50.26;99914.81;6250421;22;20004;-75
2022/04/16 03:09:35;;;;;;;0.20;0.20;;;;;;;14.82;50.56;99901.22;6277130;22;20106;-75
2022/04/16 03:12:01;;;;;;;0.20;0.20;;;;;;;14.81;50.73;99905.22;6250580;22;20012;-75
2022/04/16 03:17:34;;;;;;;0.20;0.20;;;;;;;14.93;49.87;99902.81;6220115;22;20020;-75
2022/04/16 03:20:07;;;;;;;0.20;0.20;;;;;;;14.83;49.72;99891.63;6250203;22;20000;-74
2022/04/16 03:22:33;;;;;;;0.10;0.10;;;;;;;14.80;49.76;99887.59;6249847;22;20051;-75
2022/04/16 03:25:09;;;;;;;0.20;0.20;;;;;;;14.76;50.00;99883.22;6250046;22;20000;-75
2022/04/16 03:27:36;;;;;;;0.20;0.20;;;;;;;14.74;49.78;99894.00;6250576;22;20011;-75
2022/04/16 03:30:04;;;;;;;0.20;0.20;;;;;;;14.89;49.31;99884.41;6250001;22;20007;-75
2022/04/16 03:32:30;;;;;;;0.20;0.20;;;;;;;14.81;49.52;99892.03;6250480;22;20087;-75
2022/04/16 03:34:56;;;;;;;0.20;0.20;;;;;;;14.76;49.46;99891.63;6249799;22;20004;-75
2022/04/16 03:37:24;;;;;;;0.20;0.20;;;;;;;14.74;49.73;99885.59;6249880;22;20100;-74
2022/04/16 03:39:51;;;;;;;0.20;0.20;;;;;;;14.82;49.18;99879.63;6276570;22;20007;-75
2022/04/16 03:42:18;;;;;;;0.20;0.20;;;;;;;14.91;49.35;99888.44;6249946;22;20484;-75
2022/04/16 03:44:44;;;;;;;0.20;0.20;;;;;;;14.94;49.20;99879.22;6250134;22;20012;-75
2022/04/16 03:47:10;;;;;;;0.20;0.20;;;;;;;14.97;48.87;99883.22;6250220;22;20008;-75
2022/04/16 03:49:37;;;;;;;0.20;0.20;;;;;;;14.96;49.14;99890.00;6249717;22;20008;-75
2022/04/16 03:52:03;;;;;;;0.20;0.20;;;;;;;14.82;49.64;99879.63;6244993;23;20043;-76
2022/04/16 03:59:59;;;;;;;0.20;0.20;;;;;;;14.65;49.32;99889.59;6246751;23;20332;-75
2022/04/16 04:02:25;;;;;;;0.20;0.20;;;;;;;14.60;48.81;99873.19;6244496;23;20079;-74
2022/04/16 04:04:51;;;;;;;0.20;0.20;;;;;;;14.60;49.56;99867.59;6244582;23;20015;-75
2022/04/16 04:07:17;;;;;;;0.20;0.20;;;;;;;14.63;49.28;99866.78;6244203;23;20008;-75
2022/04/16 04:09:44;;;;;;;0.20;0.20;;;;;;;14.68;47.77;99866.38;6244609;23;20008;-74
2022/04/16 04:12:11;;;;;;;0.20;0.20;;;;;;;14.58;48.85;99850.38;6245283;23;20031;-75
2022/04/16 04:14:38;;;;;;;0.13;0.13;;;;;;;14.80;48.86;99876.38;6244929;23;20422;-75
2022/04/16 04:17:06;;;;;;;0.20;0.20;;;;;;;14.75;48.73;99873.19;6246329;22;20329;-75
2022/04/16 04:19:34;;;;;;;0.20;0.20;;;;;;;14.74;48.00;99877.19;6246403;23;20149;-75
2022/04/16 04:21:59;;;;;;;0.20;0.20;;;;;;;14.72;47.51;99874.00;6246456;23;20008;-75
2022/04/16 04:24:25;;;;;;;0.20;0.20;;;;;;;14.81;47.97;99871.63;6247049;23;20036;-75
2022/04/16 04:26:55;;;;;;;0.20;0.20;;;;;;;14.88;48.03;99868.81;6245941;23;20034;-75
2022/04/16 04:29:20;;;;;;;0.20;0.20;;;;;;;14.90;47.46;99877.59;6247008;23;20015;-74
2022/04/16 04:31:46;;;;;;;0.20;0.20;;;;;;;14.92;47.25;99872.41;6246288;23;20016;-75
2022/04/16 04:34:11;;;;;;;0.20;0.20;;;;;;;14.97;47.14;99869.22;6246249;23;20004;-75
2022/04/16 04:36:37;;;;;;;0.20;0.20;;;;;;;14.90;47.32;99870.00;6246523;23;20032;-74
2022/04/16 04:39:03;;;;;;;0.20;0.20;;;;;;;14.93;47.24;99869.22;6247563;22;20004;-75
2022/04/16 04:41:28;;;;;;;0.20;0.20;;;;;;;14.91;47.09;99871.63;6246248;23;20012;-74
2022/04/16 04:43:54;;;;;;;0.17;0.17;;;;;;;15.04;46.80;99880.41;6246481;23;20083;-75
2022/04/16 04:46:19;;;;;;;0.20;0.20;;;;;;;15.08;47.57;99874.81;6246251;23;20042;-74
2022/04/16 04:48:45;;;;;;;0.20;0.20;;;;;;;15.05;47.18;99882.00;6247747;22;20008;-74
2022/04/16 04:51:10;;;;;;;0.20;0.20;;;;;;;14.94;47.38;99876.41;6247138;22;20317;-75
2022/04/16 04:53:35;;;;;;;0.10;0.10;;;;;;;15.05;47.25;99873.59;6251528;22;20007;-75
2022/04/16 04:56:01;;;;;;;0.20;0.20;;;;;;;15.08;47.05;99884.03;6251230;22;20062;-75
2022/04/16 04:58:26;;;;;;;0.20;0.20;;;;;;;15.15;47.00;99875.59;6251649;22;20012;-75
2022/04/16 05:00:52;;;;;;;0.20;0.20;;;;;;;15.15;46.31;99881.22;6251296;22;20059;-75
2022/04/16 05:03:17;;;;;;;0.20;0.20;;;;;;;15.26;46.18;99886.00;6251421;22;20004;-75
2022/04/16 05:05:43;;;;;;;0.20;0.20;;;;;;;15.23;46.70;99881.19;6251028;22;20070;-75
2022/04/16 05:08:08;;;;;;;0.20;0.20;;;;;;;15.36;46.48;99874.78;6251093;22;20011;-75
2022/04/16 05:10:34;;;;;;;0.20;0.20;;;;;;;15.38;46.16;99885.59;6251678;22;20011;-75
2022/04/16 05:12:59;;;;;;;0.20;0.20;;;;;;;15.46;45.80;99884.38;6251414;22;20417;-75
2022/04/16 05:15:25;;;;;;;0.20;0.20;;;;;;;15.58;46.02;99881.16;6250693;22;20030;-74
2022/04/16 05:17:51;;;;;;;0.20;0.20;;;;;;;15.68;45.80;99890.78;6251198;22;20003;-74
2022/04/16 05:20:16;;;;;;;0.20;0.20;;;;;;;15.76;45.40;99880.31;6250983;22;20034;-75
2022/04/16 05:22:42;;;;;;;0.20;0.20;;;;;;;15.77;45.44;99876.34;6250685;22;20003;-74
2022/04/16 05:25:08;;;;;;;0.20;0.20;;;;;;;15.84;45.63;99887.53;6251510;22;20008;-74
2022/04/16 05:27:34;;;;;;;0.10;0.10;;;;;;;16.02;45.28;99888.25;6251104;22;20007;-74
2022/04/16 05:30:22;;;;;;;0.20;0.20;;;;;;;16.07;44.71;99887.81;6250316;22;20041;-75
2022/04/16 05:32:52;;;;;;;0.20;0.20;;;;;;;16.20;44.58;99903.03;6250705;22;20008;-74
2022/04/16 05:35:18;;;;;;;0.20;0.20;;;;;;;16.22;44.84;99903.41;6278191;22;20004;-75
2022/04/16 05:37:44;;;;;;;0.10;0.10;;;;;;;16.33;44.62;99897.72;6250605;22;20008;-75
2022/04/16 05:40:11;;;;;;;0.20;0.20;;;;;;;16.49;44.23;99895.25;6250525;22;20027;-74
2022/04/16 05:42:42;;;;;;;0.20;0.20;;;;;;;16.52;43.97;99887.22;6250811;22;20073;-74
2022/04/16 05:45:09;;;;;;;0.20;0.20;;;;;;;16.52;44.18;99896.44;6250488;22;20034;-74
2022/04/16 05:47:34;;;;;;;0.20;0.20;;;;;;;16.58;43.92;99891.19;6277306;22;20436;-75
2022/04/16 05:50:00;;;;;;;0.20;0.20;;;;;;;16.73;43.41;99887.91;6250773;22;20177;-74
2022/04/16 05:52:26;;;;;;;0.20;0.20;;;;;;;16.84;43.54;99889.84;6250427;22;20570;-75
2022/04/16 05:54:54;;;;;;;0.20;0.20;;;;;;;16.92;43.58;99883.75;6251238;22;20015;-74
2022/04/16 05:57:22;;;;;;;0.20;0.20;;;;;;;17.04;43.60;99888.06;6277561;22;20008;-74
2022/04/16 05:59:49;;;;;;;0.20;0.20;;;;;;;17.13;43.01;99899.63;6250999;22;20035;-72
2022/04/16 06:02:14;;;;;;;0.20;0.20;;;;;;;17.36;42.77;99895.41;6250658;22;20012;-72
2022/04/16 06:04:40;;;;;;;0.20;0.20;;;;;;;17.49;42.31;99893.69;6250365;22;20299;-72
2022/04/16 06:07:05;;;;;;;0.20;0.20;;;;;;;17.63;42.32;99887.94;6250726;22;20015;-75
2022/04/16 06:09:31;;;;;;;0.20;0.20;;;;;;;17.85;41.44;99888.53;6250561;22;20412;-72
2022/04/16 06:12:01;;;;;;;0.20;0.20;;;;;;;18.39;40.75;99887.84;6250502;22;20325;-72
2022/04/16 06:14:27;;;;;;;0.10;0.10;;;;;;;18.59;39.74;99883.94;6250801;22;20026;-72
2022/04/16 06:16:53;;;;;;;0.20;0.20;;;;;;;18.76;39.39;99889.78;6250416;22;20387;-72
2022/04/16 06:19:18;;;;;;;0.20;0.20;;;;;;;18.90;38.83;99892.34;6250086;22;20109;-72
2022/04/16 06:21:44;;;;;;;0.20;0.20;;;;;;;19.13;38.45;99894.41;6250144;22;20042;-72
2022/04/16 06:24:09;;;;;;;0.20;0.20;;;;;;;19.30;37.64;99884.84;6250556;22;20039;-73
2022/04/16 06:26:35;;;;;;;0.20;0.20;;;;;;;19.44;37.44;99889.44;6250275;22;20065;-72
2022/04/16 06:29:01;;;;;;;0.20;0.20;;;;;;;19.42;37.29;99885.44;6250060;22;20050;-73
2022/04/16 06:31:26;;;;;;;0.20;0.20;;;;;;;19.61;36.88;99882.72;6249892;22;20007;-72
2022/04/16 06:33:52;;;;;;;0.20;0.20;;;;;;;19.59;36.30;99879.50;6249995;22;20011;-73
2022/04/16 06:36:17;;;;;;;0.20;0.20;;;;;;;19.74;35.94;99891.31;6250059;22;20004;-72
2022/04/16 06:38:44;;;;;;;0.20;0.20;;;;;;;19.75;35.45;99892.13;6261248;22;20020;-72
2022/04/16 06:41:10;;;;;;;0.20;0.20;;;;;;;19.58;35.35;99883.53;6249786;22;20011;-72
2022/04/16 06:43:35;;;;;;;0.20;0.20;;;;;;;20.12;35.01;99888.16;6250460;22;20015;-72
2022/04/16 06:46:02;;;;;;;0.10;0.10;;;;;;;20.34;34.83;99894.94;6250212;22;20014;-73
2022/04/16 06:48:31;;;;;;;0.10;0.10;;;;;;;20.31;34.51;99890.16;6250584;22;20014;-73
2022/04/16 06:50:56;;;;;;;0.20;0.20;;;;;;;20.63;33.94;99895.16;6249726;22;20000;-73
2022/04/16 06:53:25;;;;;;;0.20;0.20;;;;;;;20.97;33.77;99890.31;6248953;22;20015;-73
2022/04/16 06:55:50;;;;;;;0.20;0.20;;;;;;;21.21;33.65;99888.91;6249773;22;20007;-73
2022/04/16 06:58:16;;;;;;;0.10;0.10;;;;;;;21.43;33.14;99889.97;6249518;22;20024;-73
2022/04/16 07:00:41;;;;;;;0.10;0.10;;;;;;;21.73;33.00;99890.78;6249645;22;20036;-74
2022/04/16 07:03:07;;;;;;;0.20;0.20;;;;;;;21.96;32.33;99887.72;6249642;22;20011;-73
2022/04/16 07:05:34;;;;;;;0.10;0.10;;;;;;;22.00;31.96;99884.81;6249788;22;20080;-72
2022/04/16 07:07:59;;;;;;;0.10;0.10;;;;;;;22.34;31.32;99886.28;6249652;22;20031;-73
2022/04/16 07:10:25;;;;;;;0.10;0.10;;;;;;;22.47;31.32;99884.25;6249656;22;20007;-73
2022/04/16 07:12:50;;;;;;;0.20;0.20;;;;;;;22.85;30.87;99880.63;6249653;22;20065;-73
2022/04/16 07:15:16;;;;;;;0.10;0.10;;;;;;;23.21;30.27;99883.91;6249581;22;20018;-73
2022/04/16 07:17:41;;;;;;;0.20;0.20;;;;;;;23.38;30.11;99881.72;6249552;22;20007;-72
2022/04/16 07:20:08;;;;;;;0.10;0.10;;;;;;;23.42;29.56;99882.38;6249772;22;20012;-73
2022/04/16 07:22:35;;;;;;;0.10;0.10;;;;;;;23.60;29.58;99886.69;6277008;22;20007;-73
2022/04/16 07:25:00;;;;;;;0.10;0.10;;;;;;;24.08;28.98;99881.72;6250569;22;20355;-73
2022/04/16 07:27:26;;;;;;;0.10;0.10;;;;;;;24.45;28.48;99882.75;6250001;22;20090;-73
2022/04/16 07:29:58;;;;;;;0.17;0.17;;;;;;;24.85;27.63;99879.16;6249866;22;20337;-73
2022/04/16 07:32:27;;;;;;;0.10;0.10;;;;;;;24.91;27.43;99880.91;6276697;22;20007;-73
2022/04/16 07:34:52;;;;;;;0.10;0.10;;;;;;;24.09;28.53;99886.16;6249887;22;20468;-74
2022/04/16 07:37:19;;;;;;;0.10;0.10;;;;;;;23.94;28.86;99877.34;6249973;22;20089;-74
2022/04/16 07:39:45;;;;;;;0.10;0.10;;;;;;;23.62;29.14;99889.84;6249975;22;20302;-74
2022/04/16 07:42:13;;;;;;;0.20;0.20;;;;;;;23.71;29.53;99887.13;6249513;22;20019;-73
2022/04/16 07:44:38;;;;;;;0.10;0.10;;;;;;;23.82;29.99;99896.03;6249716;22;20306;-75
2022/04/16 07:47:04;;;;;;;0.20;0.20;;;;;;;24.14;29.55;99891.22;6249519;22;20014;-73
2022/04/16 07:49:30;;;;;;;0.10;0.10;;;;;;;23.95;30.02;99879.72;6249833;22;20007;-73
2022/04/16 07:51:55;;;;;;;0.17;0.17;;;;;;;24.55;29.04;99885.19;6244791;23;20456;-73
2022/04/16 07:54:21;;;;;;;0.20;0.20;;;;;;;24.55;28.99;99885.19;6246344;23;20008;-72
2022/04/16 07:56:46;;;;;;;0.10;0.10;;;;;;;23.87;30.30;99892.63;6246373;23;20000;-73
2022/04/16 07:59:12;;;;;;;0.10;0.10;;;;;;;24.10;29.22;99896.25;6246471;23;20011;-72
2022/04/16 08:01:38;;;;;;;0.13;0.13;;;;;;;23.59;30.12;99893.59;6246399;23;20035;-74
2022/04/16 08:04:07;;;;;;;0.10;0.10;;;;;;;24.27;29.72;99884.19;6248123;22;20004;-73
2022/04/16 08:06:33;;;;;;;0.10;0.10;;;;;;;24.43;29.76;99891.75;6246164;23;20007;-74
2022/04/16 08:09:00;;;;;;;0.10;0.10;;;;;;;24.49;28.64;99880.56;6246611;23;20014;-74
2022/04/16 08:11:35;;;;;;;0.10;0.10;;;;;;;24.63;28.06;99882.84;6246342;23;20012;-73
2022/04/16 08:14:01;;;;;;;0.10;0.10;;;;;;;25.02;27.50;99881.25;6246261;23;20099;-74
2022/04/16 08:16:27;;;;;;;0.10;0.10;;;;;;;24.71;28.36;99878.44;6246160;23;20094;-73
2022/04/16 08:18:53;;;;;;;0.20;0.20;;;;;;;25.17;27.83;99880.72;6246584;23;20380;-74
2022/04/16 08:21:20;;;;;;;0.10;0.10;;;;;;;26.08;26.67;99872.22;6246299;23;20093;-74
2022/04/16 08:23:55;;;;;;;0.10;0.10;;;;;;;25.62;27.40;99865.75;6246115;23;20004;-73
2022/04/16 08:26:24;;;;;;;0.10;0.10;;;;;;;25.27;26.98;99868.09;6247849;22;20433;-73
2022/04/16 08:28:51;;;;;;;0.10;0.10;;;;;;;25.19;27.67;99861.09;6246515;23;20368;-74
2022/04/16 08:31:17;;;;;;;0.10;0.10;;;;;;;25.32;27.68;99864.63;6246681;23;20038;-74
2022/04/16 08:33:42;;;;;;;0.10;0.10;;;;;;;25.34;27.07;99862.88;6245951;23;20332;-73
2022/04/16 08:36:08;;;;;;;0.10;0.10;;;;;;;25.36;27.17;99868.09;6246792;23;20008;-75
2022/04/16 08:38:34;;;;;;;0.10;0.10;;;;;;;25.27;27.82;99873.78;6246379;23;20134;-76
2022/04/16 08:41:01;;;;;;;0.10;0.10;;;;;;;24.83;27.33;99876.78;6246091;23;20373;-75
2022/04/16 08:43:28;;;;;;;0.10;0.10;;;;;;;24.70;27.75;99871.19;6246289;23;20011;-74
2022/04/16 08:45:55;;;;;;;0.10;0.10;;;;;;;24.93;28.08;99871.91;6246529;23;20425;-75
2022/04/16 08:48:24;;;;;;;0.10;0.10;;;;;;;24.49;27.93;99877.72;6246262;23;20015;-75
2022/04/16 08:50:51;;;;;;;0.10;0.10;;;;;;;24.64;28.25;99872.28;6246806;23;20032;-75
2022/04/16 08:53:17;;;;;;;0.10;0.10;;;;;;;24.85;28.25;99874.25;6250792;22;20008;-76
2022/04/16 08:55:42;;;;;;;0.10;0.10;;;;;;;25.12;27.69;99872.78;6251485;22;20447;-75
2022/04/16 08:58:08;;;;;;;0.10;0.10;;;;;;;24.94;27.27;99876.34;6251283;22;20375;-75
2022/04/16 09:00:34;;;;;;;0.10;0.10;;;;;;;25.13;27.81;99865.81;6250955;22;20018;-75
2022/04/16 09:03:03;;;;;;;0.10;0.10;;;;;;;25.25;27.81;99871.41;6250678;22;20057;-76
2022/04/16 09:05:30;;;;;;;0.10;0.10;;;;;;;24.64;29.05;99877.97;6278764;22;20070;-75
2022/04/16 09:07:57;;;;;;;0.13;0.13;;;;;;;24.52;29.34;99865.44;6250910;22;20429;-76
2022/04/16 09:10:31;;;;;;;0.10;0.10;;;;;;;24.82;28.63;99866.66;6278480;22;20397;-75
2022/04/16 09:12:58;;;;;;;0.10;0.10;;;;;;;24.71;28.87;99863.44;6250863;22;20006;-75
2022/04/16 09:15:25;;;;;;;0.10;0.10;;;;;;;24.80;27.36;99872.03;6278164;22;20007;-75
2022/04/16 09:18:00;;;;;;;0.10;0.10;;;;;;;24.92;27.23;99865.41;6277379;22;20078;-76
2022/04/16 09:20:33;;;;;;;0.10;0.10;;;;;;;24.62;27.87;99869.09;6277962;22;19999;-75
2022/04/16 09:22:59;;;;;;;0.10;0.10;;;;;;;25.03;27.87;99865.75;6277688;22;20004;-75
2022/04/16 09:25:29;;;;;;;0.10;0.10;;;;;;;24.64;28.20;99869.44;6250564;22;20008;-75
2022/04/16 09:27:54;;;;;;;0.10;0.10;;;;;;;24.12;27.80;99860.41;6250903;22;20372;-75
2022/04/16 09:30:23;;;;;;;0.10;0.10;;;;;;;23.83;28.28;99863.53;6250410;22;20012;-73
2022/04/16 09:32:49;;;;;;;0.10;0.10;;;;;;;23.92;27.42;99834.41;6250608;22;20099;-75
2022/04/16 09:35:39;;;;;;;0.10;0.10;;;;;;;23.86;27.83;99865.44;6250819;22;20004;-74
2022/04/16 09:38:08;;;;;;;0.10;0.10;;;;;;;23.81;27.73;99857.53;6277956;22;20121;-75
2022/04/16 09:40:35;;;;;;;0.10;0.10;;;;;;;23.75;28.00;99865.81;6251260;22;20072;-75
2022/04/16 09:43:05;;;;;;;0.10;0.10;;;;;;;23.62;28.08;99861.44;6250366;22;20003;-74
2022/04/16 09:45:32;;;;;;;0.10;0.10;;;;;;;24.40;27.07;99857.78;6225296;22;20015;-74
2022/04/16 09:47:59;;;;;;;0.10;0.10;;;;;;;24.12;27.56;99871.00;6250863;22;20007;-74
2022/04/16 09:50:26;;;;;;;0.10;0.10;;;;;;;23.79;26.17;99860.03;6250652;22;20490;-74
2022/04/16 09:53:02;;;;;;;0.10;0.10;;;;;;;23.66;27.26;99870.66;6244789;23;20095;-74
2022/04/16 09:55:29;;;;;;;0.10;0.10;;;;;;;23.16;25.79;99863.81;6245010;23;20008;-74
2022/04/16 09:58:01;;;;;;;0.10;0.10;;;;;;;22.48;25.86;99863.16;6246621;22;20000;-74
2022/04/16 10:00:28;;;;;;;0.10;0.10;;;;;;;22.16;26.03;99855.66;6246066;23;20031;-74
2022/04/16 10:02:54;;;;;;;0.10;0.10;;;;;;;21.98;25.74;99859.75;6245425;23;20065;-76
2022/04/16 10:05:24;;;;;;;0.10;0.10;;;;;;;21.90;25.80;99861.22;6245354;23;20004;-75
2022/04/16 10:07:54;;;;;;;0.10;0.10;;;;;;;22.18;26.02;99862.44;6246580;22;20004;-74
2022/04/16 10:13:03;;;;;;;0.20;0.20;;;;;;;22.64;25.94;99851.72;6256883;22;20066;-73
2022/04/16 10:16:01;;;;;;;0.20;0.20;;;;;;;22.61;25.80;99843.31;6245323;23;20004;-74
2022/04/16 10:18:28;;;;;;;0.10;0.10;;;;;;;22.69;25.33;99847.50;6117521;22;20429;-73
2022/04/16 10:20:58;;;;;;;0.20;0.20;;;;;;;22.15;24.85;99848.38;6245647;23;20421;-73
2022/04/16 10:23:31;;;;;;;0.20;0.20;;;;;;;22.02;24.68;99839.03;6245602;23;20421;-74
2022/04/16 10:26:11;;;;;;;0.10;0.10;;;;;;;22.26;24.76;99846.00;6245497;23;20044;-74
2022/04/16 10:28:59;;;;;;;0.10;0.10;;;;;;;22.01;25.67;99843.91;6246394;22;20007;-74
2022/04/16 10:31:29;;;;;;;0.10;0.10;;;;;;;21.83;26.16;99849.28;6245016;23;20008;-75
2022/04/16 10:34:05;;;;;;;0.10;0.10;;;;;;;22.03;26.41;99830.06;6245005;23;20014;-74
2022/04/16 10:36:52;;;;;;;0.20;0.20;;;;;;;22.30;26.27;99835.34;6245890;23;20313;-74
2022/04/16 10:39:29;;;;;;;0.10;0.10;;;;;;;22.13;26.68;99839.53;6245201;23;20008;-74
2022/04/16 10:42:04;;;;;;;0.10;0.10;;;;;;;21.83;25.54;99829.44;6245635;23;20078;-74
2022/04/16 10:44:47;;;;;;;0.10;0.10;;;;;;;22.39;26.83;99824.16;6244754;23;20012;-74
2022/04/16 10:47:17;;;;;;;0.10;0.10;;;;;;;22.33;26.01;99825.97;6245591;23;20010;-74
2022/04/16 10:49:43;;;;;;;0.20;0.20;;;;;;;22.20;26.52;99823.09;6246315;22;20004;-74
2022/04/16 10:52:22;;;;;;;0.10;0.10;;;;;;;22.26;26.48;99823.34;6249661;22;20012;-74
2022/04/16 10:54:48;;;;;;;0.10;0.10;;;;;;;22.30;26.57;99812.69;6249898;22;20003;-74
2022/04/16 10:57:21;;;;;;;0.10;0.10;;;;;;;22.26;27.21;99814.84;6249938;22;20014;-74
2022/04/16 10:59:50;;;;;;;0.10;0.10;;;;;;;22.43;26.65;99813.50;6249886;22;20079;-74
2022/04/16 11:02:19;;;;;;;0.10;0.10;;;;;;;22.26;26.84;99812.00;6272546;22;20105;-74
2022/04/16 11:05:08;;;;;;;0.20;0.20;;;;;;;22.22;27.13;99814.97;6276555;22;20011;-74
2022/04/16 11:07:35;;;;;;;0.20;0.20;;;;;;;22.36;26.69;99822.22;6250736;22;20030;-75
2022/04/16 11:10:09;;;;;;;0.10;0.10;;;;;;;22.38;27.32;99822.56;6249686;22;20428;-74
2022/04/16 11:12:40;;;;;;;0.10;0.10;;;;;;;22.42;27.25;99800.56;6249759;22;20003;-74
2022/04/16 11:15:13;;;;;;;0.10;0.10;;;;;;;22.32;27.15;99801.72;6250737;22;20383;-73
2022/04/16 11:17:41;;;;;;;;;;;;;;;22.61;27.16;99797.97;6251409;22;20365;-74
2022/04/16 11:20:07;;;;;;;0.10;0.10;;;;;;;22.47;27.60;99796.38;6249655;22;19910;-73
2022/04/16 11:22:33;;;;;;;0.10;0.10;;;;;;;22.37;27.88;99786.16;6249141;22;20011;-73
2022/04/16 11:25:05;;;;;;;0.17;0.17;;;;;;;22.43;28.39;99790.81;6249734;22;20004;-73
2022/04/16 11:36:02;;;;;;;0.10;0.10;;;;;;;22.78;27.90;99782.38;6280534;22;20065;-73
2022/04/16 11:38:29;;;;;;;0.20;0.20;;;;;;;23.03;27.28;99786.47;6253703;22;20077;-74
2022/04/16 11:41:00;;;;;;;0.10;0.10;;;;;;;23.18;26.14;99781.88;6253074;22;20007;-73
2022/04/16 11:43:28;;;;;;;0.20;0.20;;;;;;;22.98;27.39;99774.44;6280037;22;20065;-74
2022/04/16 11:45:57;;;;;;;0.10;0.10;;;;;;;22.95;28.03;99769.66;6252987;22;20153;-73
2022/04/16 11:48:23;;;;;;;0.10;0.10;;;;;;;23.29;27.25;99770.16;6280790;22;20400;-74
2022/04/16 11:50:50;;;;;;;0.10;0.10;;;;;;;23.26;26.97;99771.84;6253126;22;20003;-74
2022/04/16 11:53:15;;;;;;;0.20;0.20;;;;;;;22.87;27.48;99784.53;6252364;22;20021;-73
2022/04/16 11:55:49;;;;;;;0.10;0.10;;;;;;;23.01;27.90;99786.94;6253032;22;20086;-74
2022/04/16 11:58:14;;;;;;;;;;;;;;;23.24;27.52;99772.31;6253967;22;20369;-74